createdAt,value
2023-04-25T00:00:09.176Z,99643.34
2023-04-25T00:02:40.487Z,99642.25
2023-04-25T00:05:10.277Z,99639.72
2023-04-25T00:07:38.458Z,99638.16
2023-04-25T00:10:07.850Z,99633.78
2023-04-25T00:12:36.891Z,99642.94
2023-04-25T00:15:07.382Z,99645.72
2023-04-25T00:17:36.766Z,99647.66
2023-04-25T00:20:09.919Z,99652.34
2023-04-25T00:22:39.149Z,99648.97
2023-04-25T00:25:08.242Z,99651.97
2023-04-25T00:27:36.239Z,99655.59
2023-04-25T00:30:07.476Z,99648.81
2023-04-25T00:32:35.695Z,99656.88
2023-04-25T00:35:04.094Z,99655.19
2023-04-25T00:37:33.113Z,99650.44
2023-04-25T00:40:01.147Z,99653.66
2023-04-25T00:42:30.864Z,99655.09
2023-04-25T00:45:00.354Z,99650.13
2023-04-25T00:47:30.882Z,99649.28
2023-04-25T00:49:59.153Z,99655.78
2023-04-25T00:52:27.427Z,99655.91
2023-04-25T00:54:55.573Z,99651.75
2023-04-25T00:57:23.808Z,99659.00
2023-04-25T00:59:53.762Z,99662.38
2023-04-25T01:02:22.593Z,99665.97
2023-04-25T01:04:52.326Z,99663.31
2023-04-25T01:07:20.906Z,99661.75
2023-04-25T01:09:49.289Z,99652.84
2023-04-25T01:12:17.572Z,99654.66
2023-04-25T01:14:45.756Z,99651.47
2023-04-25T01:17:14.561Z,99653.06
2023-04-25T01:19:43.365Z,99652.22
2023-04-25T01:22:12.812Z,99642.78
2023-04-25T01:24:40.888Z,99642.28
2023-04-25T01:27:10.545Z,99639.09
2023-04-25T01:29:38.866Z,99643.78
2023-04-25T01:32:07.991Z,99638.91
2023-04-25T01:34:36.473Z,99636.38
2023-04-25T01:37:04.417Z,99635.87
2023-04-25T01:39:34.173Z,99637.44
2023-04-25T01:42:02.545Z,99645.50
2023-04-25T01:44:32.117Z,99634.25
2023-04-25T01:47:00.191Z,99637.03
2023-04-25T01:49:29.479Z,99634.38
2023-04-25T01:51:58.324Z,99642.34
2023-04-25T01:54:26.376Z,99641.72
2023-04-25T01:56:59.560Z,99643.28
2023-04-25T01:59:27.547Z,99644.38
2023-04-25T02:01:56.047Z,99652.94
2023-04-25T02:04:24.804Z,99653.16
2023-04-25T02:06:53.349Z,99655.94
2023-04-25T02:09:22.113Z,99648.72
2023-04-25T02:11:50.463Z,99641.59
2023-04-25T02:14:20.714Z,99648.09
2023-04-25T02:16:49.308Z,99645.63
2023-04-25T02:19:17.693Z,99646.81
2023-04-25T02:21:45.803Z,99645.97
2023-04-25T02:24:13.916Z,99656.78
2023-04-25T02:26:42.317Z,99655.19
2023-04-25T02:29:11.117Z,99657.84
2023-04-25T02:31:40.543Z,99661.44
2023-04-25T02:34:08.682Z,99659.03
2023-04-25T02:36:37.289Z,99652.16
2023-04-25T02:39:05.973Z,99655.72
2023-04-25T02:41:33.988Z,99663.78
2023-04-25T02:44:02.456Z,99655.34
2023-04-25T02:46:38.870Z,99652.56
2023-04-25T02:49:09.432Z,99657.03
2023-04-25T02:51:37.420Z,99656.28
2023-04-25T02:54:07.525Z,99648.53
2023-04-25T02:56:36.760Z,99649.63
2023-04-25T02:59:05.101Z,99646.22
2023-04-25T03:01:33.709Z,99647.06
2023-04-25T03:04:02.157Z,99645.91
2023-04-25T03:06:31.795Z,99642.41
2023-04-25T03:08:59.887Z,99638.19
2023-04-25T03:11:29.190Z,99638.09
2023-04-25T03:13:57.283Z,99639.97
2023-04-25T03:16:26.192Z,99634.78
2023-04-25T03:18:54.470Z,99626.13
2023-04-25T03:21:22.510Z,99629.94
2023-04-25T03:23:51.940Z,99622.13
2023-04-25T03:26:20.610Z,99631.84
2023-04-25T03:28:50.107Z,99629.41
2023-04-25T03:31:18.382Z,99631.31
2023-04-25T03:33:46.770Z,99630.69
2023-04-25T03:36:14.846Z,99631.19
2023-04-25T03:38:43.273Z,99633.00
2023-04-25T03:41:13.361Z,99629.69
2023-04-25T03:43:42.063Z,99631.50
2023-04-25T03:46:11.720Z,99638.50
2023-04-25T03:48:39.964Z,99639.97
2023-04-25T03:51:08.347Z,99639.03
2023-04-25T03:53:37.163Z,99635.22
2023-04-25T03:56:07.790Z,99629.81
2023-04-25T03:58:37.820Z,99628.97
2023-04-25T04:01:08.782Z,99630.66
2023-04-25T04:03:38.352Z,99634.25
2023-04-25T04:06:07.943Z,99628.97
2023-04-25T04:08:36.498Z,99629.06
2023-04-25T04:11:04.962Z,99630.75
2023-04-25T04:13:34.017Z,99635.22
2023-04-25T04:16:05.335Z,99637.84
2023-04-25T04:18:34.893Z,99639.75
2023-04-25T04:21:03.379Z,99636.72
2023-04-25T04:23:32.183Z,99647.72
2023-04-25T04:26:00.975Z,99649.63
2023-04-25T04:28:29.226Z,99647.59
2023-04-25T04:30:57.502Z,99654.16
2023-04-25T04:33:28.143Z,99650.37
2023-04-25T04:35:56.767Z,99651.84
2023-04-25T04:38:24.974Z,99655.69
2023-04-25T04:40:54.728Z,99651.13
2023-04-25T04:43:23.984Z,99655.78
2023-04-25T04:45:53.321Z,99659.16
2023-04-25T04:48:22.445Z,99662.31
2023-04-25T04:50:55.849Z,99668.06
2023-04-25T04:53:24.339Z,99662.12
2023-04-25T04:55:52.615Z,99668.91
2023-04-25T04:58:21.322Z,99664.88
2023-04-25T05:00:49.982Z,99673.78
2023-04-25T05:03:18.377Z,99670.28
2023-04-25T05:05:49.417Z,99673.44
2023-04-25T05:08:20.006Z,99677.56
2023-04-25T05:10:48.128Z,99679.06
2023-04-25T05:13:16.637Z,99683.50
2023-04-25T05:15:45.368Z,99678.63
2023-04-25T05:18:13.662Z,99681.47
2023-04-25T05:20:41.876Z,99688.75
2023-04-25T05:23:11.936Z,99686.59
2023-04-25T05:25:41.349Z,99691.47
2023-04-25T05:28:09.811Z,99695.09
2023-04-25T05:30:38.793Z,99688.87
2023-04-25T05:33:07.802Z,99695.16
2023-04-25T05:35:36.185Z,99693.81
2023-04-25T05:38:04.620Z,99693.47
2023-04-25T05:40:33.340Z,99697.88
2023-04-25T05:43:03.205Z,99701.91
2023-04-25T05:45:32.003Z,99694.19
2023-04-25T05:48:01.108Z,99692.78
2023-04-25T05:50:31.918Z,99702.50
2023-04-25T05:53:01.010Z,99701.44
2023-04-25T05:55:30.099Z,99702.47
2023-04-25T05:57:59.623Z,99698.94
2023-04-25T06:00:29.718Z,99699.47
2023-04-25T06:02:58.492Z,99707.97
2023-04-25T06:05:27.017Z,99704.34
2023-04-25T06:07:55.310Z,99710.09
2023-04-25T06:10:23.840Z,99713.94
2023-04-25T06:12:51.817Z,99712.37
2023-04-25T06:17:53.092Z,99714.28
2023-04-25T06:20:24.268Z,99713.50
2023-04-25T06:22:53.712Z,99718.72
2023-04-25T06:25:22.984Z,99716.88
2023-04-25T06:27:50.964Z,99722.28
2023-04-25T06:30:23.549Z,99721.16
2023-04-25T06:32:54.144Z,99734.44
2023-04-25T06:35:22.664Z,99731.47
2023-04-25T06:37:50.837Z,99728.47
2023-04-25T06:40:20.370Z,99722.44
2023-04-25T06:42:48.764Z,99735.66
2023-04-25T06:45:18.768Z,99733.84
2023-04-25T06:47:46.896Z,99741.00
2023-04-25T06:50:16.944Z,99741.56
2023-04-25T06:52:44.985Z,99737.72
2023-04-25T06:55:13.035Z,99743.75
2023-04-25T06:57:43.325Z,99746.12
2023-04-25T07:00:14.143Z,99754.03
2023-04-25T07:02:44.371Z,99749.37
2023-04-25T07:05:12.721Z,99748.97
2023-04-25T07:07:42.117Z,99758.41
2023-04-25T07:10:11.135Z,99757.66
2023-04-25T07:12:39.265Z,99769.44
2023-04-25T07:15:11.105Z,99757.22
2023-04-25T07:17:41.413Z,99762.75
2023-04-25T07:20:11.133Z,99760.19
2023-04-25T07:22:39.698Z,99775.81
2023-04-25T07:25:10.696Z,99767.00
2023-04-25T07:27:38.995Z,99763.78
2023-04-25T07:30:09.199Z,99773.63
2023-04-25T07:32:37.250Z,99773.63
2023-04-25T07:35:05.951Z,99774.97
2023-04-25T07:37:34.332Z,99784.56
2023-04-25T07:40:04.882Z,99784.94
2023-04-25T07:42:35.127Z,99790.81
2023-04-25T07:45:04.767Z,99791.75
2023-04-25T07:47:32.860Z,99791.50
2023-04-25T07:50:01.539Z,99795.34
2023-04-25T07:52:30.615Z,99796.72
2023-04-25T07:54:59.826Z,99799.28
2023-04-25T07:57:28.491Z,99801.69
2023-04-25T07:59:58.621Z,99802.87
2023-04-25T08:02:29.376Z,99808.97
2023-04-25T08:04:58.202Z,99813.03
2023-04-25T08:07:27.637Z,99816.47
2023-04-25T08:09:56.568Z,99824.09
2023-04-25T08:12:24.923Z,99816.00
2023-04-25T08:14:53.214Z,99818.81
2023-04-25T08:17:23.144Z,99822.12
2023-04-25T08:19:51.746Z,99822.00
2023-04-25T08:22:20.441Z,99829.53
2023-04-25T08:24:48.825Z,99832.97
2023-04-25T08:27:19.914Z,99841.16
2023-04-25T08:29:48.360Z,99838.06
2023-04-25T08:32:17.149Z,99842.78
2023-04-25T08:34:48.215Z,99843.97
2023-04-25T08:37:16.657Z,99846.25
2023-04-25T08:39:46.164Z,99861.94
2023-04-25T08:42:16.893Z,99854.00
2023-04-25T08:44:47.240Z,99855.16
2023-04-25T08:47:15.370Z,99858.81
2023-04-25T08:49:48.615Z,99861.97
2023-04-25T08:52:23.646Z,99861.53
2023-04-25T08:54:53.291Z,99874.31
2023-04-25T08:57:22.157Z,99876.84
2023-04-25T08:59:51.375Z,99876.94
2023-04-25T09:02:21.808Z,99878.75
2023-04-25T09:04:52.168Z,99886.63
2023-04-25T09:07:22.341Z,99885.72
2023-04-25T09:09:51.573Z,99881.16
2023-04-25T09:12:20.804Z,99883.88
2023-04-25T09:15:07.521Z,99886.53
2023-04-25T09:17:36.473Z,99892.44
2023-04-25T09:20:11.067Z,99892.69
2023-04-25T09:22:40.479Z,99894.94
2023-04-25T09:25:12.901Z,99900.28
2023-04-25T09:27:52.697Z,99900.84
2023-04-25T09:30:31.202Z,99908.97
2023-04-25T09:33:06.383Z,99908.47
2023-04-25T09:35:40.190Z,99913.25
2023-04-25T09:38:11.418Z,99910.97
2023-04-25T09:40:46.115Z,99905.62
2023-04-25T09:43:22.535Z,99912.66
2023-04-25T09:45:52.796Z,99909.72
2023-04-25T09:48:23.382Z,99909.25
2023-04-25T09:51:06.506Z,99913.56
2023-04-25T09:53:36.419Z,99907.03
2023-04-25T09:56:08.358Z,99909.78
2023-04-25T09:58:37.996Z,99916.72
2023-04-25T10:01:07.529Z,99910.03
2023-04-25T10:03:39.043Z,99913.94
2023-04-25T10:06:12.034Z,99918.81
2023-04-25T10:08:41.175Z,99910.97
2023-04-25T10:11:10.464Z,99920.16
2023-04-25T10:13:38.632Z,99915.50
2023-04-25T10:16:07.161Z,99920.84
2023-04-25T10:18:35.390Z,99925.37
2023-04-25T10:21:06.908Z,99929.75
2023-04-25T10:23:37.321Z,99925.06
2023-04-25T10:26:05.757Z,99930.03
2023-04-25T10:29:00.871Z,99937.00
2023-04-25T10:31:29.504Z,99930.88
2023-04-25T10:33:57.720Z,99934.97
2023-04-25T10:36:28.201Z,99945.16
2023-04-25T10:38:56.546Z,99940.50
2023-04-25T10:41:24.737Z,99939.16
2023-04-25T10:44:03.275Z,99945.72
2023-04-25T10:46:32.679Z,99938.72
2023-04-25T10:49:02.052Z,99936.88
2023-04-25T10:51:43.432Z,99942.22
2023-04-25T10:54:21.386Z,99938.53
2023-04-25T10:56:50.821Z,99938.03
2023-04-25T10:59:21.530Z,99934.91
2023-04-25T11:01:54.163Z,99934.84
2023-04-25T11:04:23.577Z,99938.78
2023-04-25T11:07:15.613Z,99933.72
2023-04-25T11:09:43.646Z,99941.34
2023-04-25T11:12:14.183Z,99938.44
2023-04-25T11:14:43.589Z,99947.44
2023-04-25T11:17:12.807Z,99953.09
2023-04-25T11:19:40.985Z,99945.28
2023-04-25T11:22:09.097Z,99946.38
2023-04-25T11:24:38.383Z,99953.50
2023-04-25T11:27:07.741Z,99956.72
2023-04-25T11:29:36.735Z,99952.50
2023-04-25T11:32:06.573Z,99954.69
2023-04-25T11:34:35.656Z,99949.44
2023-04-25T11:37:04.744Z,99953.09
2023-04-25T11:39:33.138Z,99958.72
2023-04-25T11:42:02.340Z,99960.06
2023-04-25T11:44:32.362Z,99957.94
2023-04-25T11:47:00.794Z,99969.19
2023-04-25T11:49:36.153Z,99962.53
2023-04-25T11:52:04.847Z,99959.81
2023-04-25T11:54:32.814Z,99977.19
2023-04-25T11:57:02.318Z,99976.28
2023-04-25T11:59:31.016Z,99985.37
2023-04-25T12:01:59.632Z,99979.47
2023-04-25T12:04:28.285Z,99987.50
2023-04-25T12:06:57.845Z,99984.22
2023-04-25T12:09:31.227Z,99983.13
2023-04-25T12:12:04.097Z,99990.59
2023-04-25T12:14:34.033Z,99985.09
2023-04-25T12:17:04.950Z,99990.44
2023-04-25T12:19:35.657Z,99993.47
2023-04-25T12:22:20.359Z,99991.25
2023-04-25T12:24:48.427Z,99992.94
2023-04-25T12:27:19.838Z,99993.47
2023-04-25T12:29:55.656Z,99985.37
2023-04-25T12:32:24.243Z,99986.31
2023-04-25T12:34:52.367Z,99985.78
2023-04-25T12:37:21.967Z,99992.78
2023-04-25T12:39:50.292Z,99994.69
2023-04-25T12:42:18.380Z,99995.25
2023-04-25T12:44:47.386Z,99994.50
2023-04-25T12:47:16.280Z,99993.78
2023-04-25T12:49:44.291Z,99991.22
2023-04-25T12:52:12.380Z,99994.97
2023-04-25T12:54:41.996Z,99994.78
2023-04-25T12:57:10.029Z,100008.16
2023-04-25T12:59:38.048Z,100006.75
2023-04-25T13:02:06.482Z,100005.75
2023-04-25T13:04:34.654Z,100007.84
2023-04-25T13:07:03.029Z,100009.69
2023-04-25T13:09:31.698Z,100006.78
2023-04-25T13:12:01.116Z,100014.25
2023-04-25T13:14:29.107Z,100012.66
2023-04-25T13:16:57.459Z,100005.50
2023-04-25T13:19:26.674Z,100011.34
2023-04-25T13:21:54.676Z,100002.00
2023-04-25T13:24:22.947Z,100004.53
2023-04-25T13:26:51.441Z,100013.41
2023-04-25T13:29:20.793Z,100002.44
2023-04-25T13:31:49.153Z,100001.50
2023-04-25T13:34:17.151Z,100006.37
2023-04-25T13:36:45.133Z,100007.06
2023-04-25T13:39:13.534Z,100014.72
2023-04-25T13:41:41.627Z,100013.06
2023-04-25T13:44:09.687Z,100009.91
2023-04-25T13:49:13.243Z,100008.56
2023-04-25T13:51:43.137Z,100026.78
2023-04-25T13:54:11.444Z,100028.19
2023-04-25T13:56:39.859Z,100034.06
2023-04-25T13:59:08.248Z,100031.81
2023-04-25T14:01:36.778Z,100043.09
2023-04-25T14:04:06.702Z,100035.62
2023-04-25T14:06:35.049Z,100042.69
2023-04-25T14:09:04.449Z,100042.16
2023-04-25T14:11:32.744Z,100043.38
2023-04-25T14:14:19.672Z,100039.34
2023-04-25T14:17:07.607Z,100038.38
2023-04-25T14:19:55.942Z,100053.87
2023-04-25T14:22:44.733Z,100058.09
2023-04-25T14:25:32.428Z,100061.94
2023-04-25T14:28:19.513Z,100072.91
2023-04-25T14:31:06.339Z,100073.56
2023-04-25T14:33:53.508Z,100075.34
2023-04-25T14:36:42.515Z,100069.75
2023-04-25T14:39:29.279Z,100077.22
2023-04-25T14:42:15.973Z,100076.72
2023-04-25T14:44:44.222Z,100067.47
2023-04-25T14:47:12.228Z,100071.53
2023-04-25T14:49:40.410Z,100076.19
2023-04-25T14:52:10.237Z,100075.72
2023-04-25T14:54:38.367Z,100072.91
2023-04-25T14:57:06.809Z,100080.16
2023-04-25T14:59:35.153Z,100078.28
2023-04-25T15:02:03.393Z,100080.31
2023-04-25T15:04:50.644Z,100076.44
2023-04-25T15:07:40.347Z,100088.78
2023-04-25T15:10:26.877Z,100081.69
2023-04-25T15:13:14.479Z,100091.75
2023-04-25T15:16:01.103Z,100093.16
2023-04-25T15:18:29.496Z,100096.41
2023-04-25T15:20:57.491Z,100095.44
2023-04-25T15:23:29.638Z,100088.84
2023-04-25T15:25:58.500Z,100090.69
2023-04-25T15:28:26.983Z,100100.00
2023-04-25T15:30:55.496Z,100099.03
2023-04-25T15:33:23.853Z,100097.81
2023-04-25T15:35:51.945Z,100105.59
2023-04-25T15:38:20.003Z,100099.09
2023-04-25T15:40:49.637Z,100106.53
2023-04-25T15:43:17.887Z,100104.44
2023-04-25T15:45:46.620Z,100111.72
2023-04-25T15:48:14.972Z,100113.22
2023-04-25T15:50:43.341Z,100114.69
2023-04-25T15:53:11.635Z,100119.91
2023-04-25T15:55:40.116Z,100119.63
2023-04-25T15:58:11.360Z,100119.97
2023-04-25T16:00:41.310Z,100135.00
2023-04-25T16:03:10.062Z,100124.00
2023-04-25T16:05:38.600Z,100135.22
2023-04-25T16:08:06.766Z,100128.84
2023-04-25T16:10:35.167Z,100127.75
2023-04-25T16:13:24.599Z,100130.94
2023-04-25T16:15:53.534Z,100126.72
2023-04-25T16:18:21.713Z,100119.03
2023-04-25T16:21:00.617Z,100122.56
2023-04-25T16:23:28.971Z,100119.03
2023-04-25T16:25:56.957Z,100120.53
2023-04-25T16:28:26.429Z,100127.41
2023-04-25T16:30:54.813Z,100119.78
2023-04-25T16:33:22.926Z,100126.09
2023-04-25T16:35:52.456Z,100124.47
2023-04-25T16:38:21.114Z,100128.94
2023-04-25T16:40:49.206Z,100133.62
2023-04-25T16:43:19.947Z,100128.81
2023-04-25T16:45:49.704Z,100133.41
2023-04-25T16:48:19.838Z,100123.16
2023-04-25T16:50:47.863Z,100127.78
2023-04-25T16:53:16.072Z,100133.53
2023-04-25T16:55:44.168Z,100134.53
2023-04-25T16:58:12.480Z,100127.75
2023-04-25T17:00:41.748Z,100140.16
2023-04-25T17:03:11.345Z,100139.50
2023-04-25T17:05:39.650Z,100145.44
2023-04-25T17:08:08.289Z,100140.16
2023-04-25T17:10:36.325Z,100141.28
2023-04-25T17:13:04.450Z,100138.28
2023-04-25T17:15:34.382Z,100142.16
2023-04-25T17:18:02.769Z,100144.03
2023-04-25T17:20:32.250Z,100151.84
2023-04-25T17:23:01.254Z,100154.97
2023-04-25T17:25:29.385Z,100148.16
2023-04-25T17:27:57.403Z,100160.31
2023-04-25T17:30:25.751Z,100168.03
2023-04-25T17:32:53.969Z,100164.31
2023-04-25T17:35:23.284Z,100172.37
2023-04-25T17:37:53.732Z,100170.69
2023-04-25T17:40:21.862Z,100172.09
2023-04-25T17:42:50.203Z,100174.88
2023-04-25T17:45:21.736Z,100180.44
2023-04-25T17:47:49.679Z,100179.97
2023-04-25T17:50:18.383Z,100179.84
2023-04-25T17:52:48.413Z,100182.72
2023-04-25T17:55:18.148Z,100179.13
2023-04-25T17:57:46.523Z,100191.25
2023-04-25T18:00:16.385Z,100189.06
2023-04-25T18:02:45.524Z,100184.47
2023-04-25T18:05:13.814Z,100190.03
2023-04-25T18:07:42.662Z,100199.69
2023-04-25T18:10:12.025Z,100205.47
2023-04-25T18:12:41.552Z,100208.44
2023-04-25T18:15:10.729Z,100217.84
2023-04-25T18:17:40.807Z,100210.19
2023-04-25T18:20:11.985Z,100220.81
2023-04-25T18:22:40.458Z,100214.81
2023-04-25T18:25:10.200Z,100220.75
2023-04-25T18:27:39.011Z,100219.06
2023-04-25T18:30:11.261Z,100225.84
2023-04-25T18:32:39.793Z,100221.00
2023-04-25T18:35:10.206Z,100220.09
2023-04-25T18:37:39.620Z,100226.66
2023-04-25T18:40:13.694Z,100234.91
2023-04-25T18:42:41.869Z,100242.38
2023-04-25T18:45:12.527Z,100239.03
2023-04-25T18:47:40.640Z,100258.06
2023-04-25T18:50:09.929Z,100259.56
2023-04-25T18:52:38.361Z,100257.75
2023-04-25T18:55:07.319Z,100259.00
2023-04-25T18:57:36.018Z,100263.09
2023-04-25T19:00:06.741Z,100264.63
2023-04-25T19:02:38.026Z,100271.59
2023-04-25T19:05:07.390Z,100269.12
2023-04-25T19:07:35.519Z,100271.47
2023-04-25T19:10:04.222Z,100277.03
2023-04-25T19:12:33.523Z,100290.25
2023-04-25T19:15:01.736Z,100288.47
2023-04-25T19:17:30.615Z,100293.59
2023-04-25T19:20:01.272Z,100278.91
2023-04-25T19:22:29.378Z,100290.84
2023-04-25T19:25:09.226Z,100289.47
2023-04-25T19:27:39.264Z,100302.00
2023-04-25T19:30:10.996Z,100297.22
2023-04-25T19:32:39.676Z,100294.69
2023-04-25T19:35:11.824Z,100296.16
2023-04-25T19:37:46.133Z,100296.69
2023-04-25T19:40:18.083Z,100299.78
2023-04-25T19:42:46.582Z,100296.25
2023-04-25T19:45:14.987Z,100298.50
2023-04-25T19:47:43.810Z,100302.72
2023-04-25T19:50:14.066Z,100309.81
2023-04-25T19:52:42.255Z,100312.84
2023-04-25T19:55:11.450Z,100313.91
2023-04-25T19:57:40.103Z,100314.53
2023-04-25T20:00:11.060Z,100313.47
2023-04-25T20:02:40.699Z,100320.94
2023-04-25T20:05:10.248Z,100322.41
2023-04-25T20:07:39.660Z,100320.59
2023-04-25T20:10:09.216Z,100321.41
2023-04-25T20:12:40.070Z,100325.63
2023-04-25T20:15:09.903Z,100323.25
2023-04-25T20:17:39.245Z,100342.09
2023-04-25T20:20:08.424Z,100340.59
2023-04-25T20:22:38.693Z,100342.37
2023-04-25T20:25:10.817Z,100341.50
2023-04-25T20:27:38.965Z,100351.88
2023-04-25T20:30:08.579Z,100356.06
2023-04-25T20:32:37.468Z,100354.22
2023-04-25T20:35:08.764Z,100348.78
2023-04-25T20:37:37.575Z,100355.16
2023-04-25T20:40:09.691Z,100359.84
2023-04-25T20:42:38.425Z,100350.75
2023-04-25T20:45:12.536Z,100350.69
2023-04-25T20:47:41.362Z,100354.97
2023-04-25T20:50:11.019Z,100355.34
2023-04-25T20:52:39.528Z,100355.13
2023-04-25T20:55:10.971Z,100351.50
2023-04-25T20:57:39.236Z,100347.94
2023-04-25T21:00:16.029Z,100348.19
2023-04-25T21:02:44.258Z,100352.16
2023-04-25T21:05:12.691Z,100351.22
2023-04-25T21:07:40.878Z,100356.69
2023-04-25T21:10:11.390Z,100361.06
2023-04-25T21:12:41.042Z,100362.19
2023-04-25T21:15:09.778Z,100356.84
2023-04-25T21:17:37.851Z,100355.16
2023-04-25T21:20:10.274Z,100353.53
2023-04-25T21:22:44.707Z,100359.00
2023-04-25T21:25:19.305Z,100350.91
2023-04-25T21:27:49.411Z,100354.91
2023-04-25T21:30:19.107Z,100352.59
2023-04-25T21:32:50.917Z,100358.84
2023-04-25T21:35:20.441Z,100362.09
2023-04-25T21:37:48.596Z,100373.16
2023-04-25T21:40:18.499Z,100370.22
2023-04-25T21:42:51.307Z,100374.62
2023-04-25T21:45:20.012Z,100373.53
2023-04-25T21:47:48.826Z,100376.09
2023-04-25T21:50:19.550Z,100377.06
2023-04-25T21:52:48.185Z,100375.94
2023-04-25T21:55:19.783Z,100384.25
2023-04-25T21:57:47.934Z,100384.62
2023-04-25T22:00:24.854Z,100381.12
2023-04-25T22:02:53.912Z,100379.69
2023-04-25T22:05:22.757Z,100387.88
2023-04-25T22:07:52.477Z,100395.81
2023-04-25T22:10:22.295Z,100385.78
2023-04-25T22:12:51.011Z,100392.03
2023-04-25T22:15:19.418Z,100389.66
2023-04-25T22:17:47.958Z,100397.13
2023-04-25T22:20:17.194Z,100396.28
2023-04-25T22:22:45.368Z,100395.16
2023-04-25T22:25:13.811Z,100401.62
2023-04-25T22:27:43.733Z,100400.00
2023-04-25T22:30:13.738Z,100405.66
2023-04-25T22:32:42.867Z,100412.34
2023-04-25T22:35:11.727Z,100403.31
2023-04-25T22:37:40.074Z,100407.72
2023-04-25T22:40:10.610Z,100405.25
2023-04-25T22:42:39.824Z,100411.69
2023-04-25T22:45:10.935Z,100418.34
2023-04-25T22:47:40.463Z,100418.19
2023-04-25T22:50:13.523Z,100422.53
2023-04-25T22:52:42.960Z,100427.81
2023-04-25T22:55:12.349Z,100426.97
2023-04-25T22:57:41.649Z,100430.19
2023-04-25T23:00:16.562Z,100432.09
2023-04-25T23:02:46.435Z,100436.72
2023-04-25T23:05:16.261Z,100432.63
2023-04-25T23:07:45.203Z,100433.25
2023-04-25T23:10:14.111Z,100434.91
2023-04-25T23:12:42.848Z,100442.88
2023-04-25T23:15:13.529Z,100447.22
2023-04-25T23:17:42.104Z,100437.84
2023-04-25T23:20:12.265Z,100439.81
2023-04-25T23:22:40.770Z,100446.31
2023-04-25T23:25:10.524Z,100453.75
2023-04-25T23:27:39.524Z,100459.41
2023-04-25T23:30:13.126Z,100456.63
2023-04-25T23:32:46.351Z,100465.00
2023-04-25T23:35:14.724Z,100458.84
2023-04-25T23:37:43.122Z,100460.81
2023-04-25T23:40:12.759Z,100466.19
2023-04-25T23:42:42.268Z,100463.28
2023-04-25T23:45:14.331Z,100469.25
2023-04-25T23:47:43.252Z,100467.19
2023-04-25T23:50:12.867Z,100461.03
2023-04-25T23:52:40.983Z,100464.63
2023-04-25T23:55:09.840Z,100459.41
2023-04-25T23:57:38.429Z,100466.91
